Disclaimer

Please do not use the information listed here in-flight or in-navigation, as they are not provided to us by the airports but are provided by volunteers, so they might be outdated.

Search


Regions


Airport information page

Radio informations:
Tower (TWR) - 118.3 MHz
RDO - 456.625 MHz
Automatic Terminal Information Service (ATIS) - 117.6 MHz
A/G - 122.1 MHz

Airport informations:
Latitude: 34° 51' 18.50" S
Longitude: 055° 05' 39.40" W
Elevation: 95 feet - 29 meters
Operating hours: 24 hour operations
Operating agency: Military-civil joint use airport
Timezone: UTC-3
Fuel: Jet A1, without icing nhibitor.

Runway information:
01/19 - 5249 x 125 feet< - >1600 x 38 meters
08/26 - 6998 x 148 feet< - >2133 x 45 meters

Recent METARs:
SULS 190200Z 32003KT CAVOK 14/10 Q1018
SULS 190300Z 32004KT CAVOK 13/10 Q1018
SULS 190300Z 32004KT CAVOK 13/10 Q1018

Airport on the map: